HOURLY OBSERVATIONS


Time
(EST)
Temperature
°F
Dew Point
°F
Humidity
%
Wind
mph
Pressure
mb
Precip.
Hour
in
Precip.
Day
in
6 Hr
Max Temp
°F
6 Hr
Min Temp
°F
19 15:00 78.8 65.6 64 SSW 2 G 6 1013.4 0.00
19 14:00 76.2 66.5 72 SW 2 G 6 1014.2 0.00
19 13:00 76.1 67.2 74 W 0 G 2 1014.8 0.00 77.3 63.4
19 12:00 76.4 66.3 71 SW 2 G 5 1015.2 0.00
19 11:00 77.1 68.2 74 SW 2 G 4 1015.4 0.00
19 10:00 76.2 67.3 74 SSW 4 G 10 1015.3 0.00
19 09:00 71.9 66.1 82 SSW 1 G 6 1015.3 0.00
19 08:00 66.5 64.1 92 Calm 1015.1 0.00
19 07:00 63.4 61.6 94 Calm 1015.3 0.00 65.1 63.0
19 06:00 63.3 61.2 93 Calm 1015.1 0.00
19 05:00 63.1 61.0 93 Calm 1014.9 0.00
19 04:00 63.5 61.4 93 Calm 1015.1 0.00
19 03:00 63.7 61.3 92 Calm 1015.0 0.00
19 02:00 64.3 61.9 92 Calm 1015.2 0.00
19 01:00 65.1 62.1 90 Calm 1015.7 0.00 75.7 65.1
19 00:00 66.2 62.5 88 Calm 1015.9 0.00
18 23:00 67.1 62.8 86 Calm 1016.3 0.00
18 22:00 68.5 63.1 83 Calm 1016.6 0.00
18 21:00 70.1 63.6 80 NE 0 G 3 1016.0 0.00
18 20:00 72.3 64.7 77 NNE 1 G 3 1016.2 0.00
18 19:00 75.7 65.2 70 NNE 2 G 4 1015.9 0.00 83.7 75.6
18 18:00 79.8 64.2 59 Calm 1015.7 0.00
18 17:00 82.6 63.8 53 SSW 2 G 6 1015.7 0.00
18 16:00 82.7 64.9 55 S 2 G 4 1015.8 0.00
18 15:00 82.1 64.4 55 SSW 3 G 6 1016.2 0.00
18 14:00 81.7 64.5 56 S 1 G 8 1016.7 0.00
18 13:00 80.6 65.4 60 WSW 1 G 5 1017.0 0.00 81.0 61.3
18 12:00 79.0 64.9 62 SSW 1 G 5 1017.8 0.00
18 11:00 78.5 65.8 65 SW 3 G 5 1018.2 0.00
18 10:00 75.1 65.5 72 SSW 2 G 6 1018.5 0.00
18 09:00 70.6 64.5 81 WSW 1 G 3 1018.6 0.00
18 08:00 65.0 63.5 95 Calm 1018.4 0.00
18 07:00 61.3 60.2 96 Calm 1018.3 0.00 64.9 61.1
18 06:00 61.3 59.9 95 Calm 1018.0 0.00
18 05:00 62.1 60.7 95 Calm 1017.8 0.00
18 04:00 62.6 60.8 94 Calm 1017.6 0.00
18 03:00 62.9 61.1 94 Calm 1017.5 0.00
18 02:00 63.6 61.5 93 Calm 1018.2 0.00
18 01:00 64.9 62.2 91 Calm 1018.1 0.00 74.8 64.9
18 00:00 66.0 63.0 90 SW 0 G 1 1018.0 0.00
17 23:00 66.9 63.6 89 SW 0 G 1 1018.6 0.00
17 22:00 68.2 64.2 87 Calm 1018.6 0.00
17 21:00 69.8 64.4 83 Calm 1018.6 0.00
17 20:00 71.7 64.1 77 Calm 1018.3 0.00
17 19:00 74.8 64.8 71 Calm 1017.7 0.00 83.6 74.8
17 18:00 78.9 65.3 63 SW 0 G 2 1017.4 0.00
17 17:00 81.3 64.1 56 W 0 G 3 1017.5 0.00
17 16:00 83.1 65.8 56 N 1 G 3 1017.7 0.00
17 15:00 80.3 65.6 61 SW 1 G 3 1017.8 0.00
17 14:00 80.7 65.1 59 SW 4 G 8 1018.4 0.00
17 13:00 78.2 65.9 66 SSW 1 G 4 1018.9 0.00 78.2 61.2
17 12:00 77.0 66.5 70 SW 0 G 2 1019.6 0.00
17 11:00 75.6 67.1 75 N 2 G 3 1020.3 0.00
17 10:00 73.1 66.9 81 SW 3 G 5 1020.8 0.00
17 09:00 68.6 65.9 91 Calm 1020.7 0.00
17 08:00 63.8 62.9 97 ENE 0 G 1 1020.5 0.00
17 07:00 61.2 60.1 96 Calm 1020.5 0.00 64.1 61.1
17 06:00 61.2 60.1 96 Calm 1020.0 0.00
17 05:00 61.6 60.4 96 Calm 1019.7 0.00
17 04:00 61.7 60.5 96 Calm 1019.6 0.00
17 03:00 62.0 60.6 95 Calm 1019.6 0.00
17 02:00 63.1 61.3 94 Calm 1019.5 0.00
17 01:00 64.1 62.3 94 Calm 1019.6 0.00 73.0 64.1
17 00:00 64.6 62.5 93 Calm 1019.8 0.00
16 23:00 66.0 63.3 91 Calm 1020.3 0.00
16 22:00 67.7 64.3 89 Calm 1020.0 0.00
16 21:00 69.3 65.3 87 Calm 1019.9 0.00
16 20:00 70.9 65.8 84 ENE 1 G 2 1020.0 0.00
16 19:00 73.0 66.1 79 NNE 0 G 1 1019.7 0.00 78.8 73.0
16 18:00 75.0 66.2 74 NNE 0 G 2 1019.8 0.00
16 17:00 76.9 66.8 71 NNE 2 G 4 1019.7 0.00
16 16:00 78.5 66.2 66 NNE 2 G 4 1019.9 0.00